createdAt,value
2019-02-08T00:02:06.293Z,33.10
2019-02-08T00:07:20.999Z,31.07
2019-02-08T00:12:25.353Z,36.83
2019-02-08T00:17:29.535Z,29.03
2019-02-08T00:22:35.255Z,29.37
2019-02-08T00:27:39.434Z,34.80
2019-02-08T00:32:44.815Z,33.63
2019-02-08T00:37:49.017Z,29.57
2019-02-08T00:42:54.414Z,31.90
2019-02-08T00:47:58.643Z,31.47
2019-02-08T00:53:04.212Z,30.47
2019-02-08T00:58:08.411Z,36.83
2019-02-08T01:03:14.231Z,23.20
2019-02-08T01:08:18.443Z,24.87
2019-02-08T01:13:23.536Z,31.00
2019-02-08T01:18:27.786Z,32.77
2019-02-08T01:23:33.079Z,25.00
2019-02-08T01:28:37.295Z,30.90
2019-02-08T01:33:41.612Z,28.43
2019-02-08T01:38:45.794Z,28.07
2019-02-08T01:43:50.460Z,29.80
2019-02-08T01:48:54.666Z,23.63
2019-02-08T01:53:58.927Z,24.47
2019-02-08T01:59:03.186Z,28.97
2019-02-08T02:04:08.301Z,28.03
2019-02-08T02:09:12.583Z,29.50
2019-02-08T02:14:17.190Z,35.77
2019-02-08T02:19:21.407Z,25.73
2019-02-08T02:24:25.976Z,33.30
2019-02-08T02:29:30.195Z,25.90
2019-02-08T02:34:35.457Z,22.90
2019-02-08T02:39:39.637Z,20.27
2019-02-08T02:44:44.231Z,23.27
2019-02-08T02:49:50.090Z,21.80
2019-02-08T02:54:54.773Z,16.40
2019-02-08T02:59:58.970Z,21.33
2019-02-08T03:05:04.826Z,18.43
2019-02-08T03:10:09.924Z,14.97
2019-02-08T03:15:15.329Z,16.83
2019-02-08T03:20:19.557Z,14.23
2019-02-08T03:25:25.145Z,23.43
2019-02-08T03:30:33.626Z,15.60
2019-02-08T03:35:38.062Z,19.37
2019-02-08T03:40:43.524Z,13.47
2019-02-08T03:45:49.988Z,13.63
2019-02-08T03:50:54.237Z,13.67
2019-02-08T03:55:59.060Z,10.27
2019-02-08T04:01:05.365Z,15.10
2019-02-08T04:06:10.321Z,11.20
2019-02-08T04:11:14.602Z,14.60
2019-02-08T04:16:18.783Z,21.87
2019-02-08T04:21:22.994Z,16.13
2019-02-08T04:26:27.753Z,13.30
2019-02-08T04:31:31.955Z,14.73
2019-02-08T04:36:36.790Z,16.77
2019-02-08T04:41:41.026Z,12.63
2019-02-08T04:46:46.381Z,11.33
2019-02-08T04:51:50.594Z,13.53
2019-02-08T04:56:55.583Z,14.77
2019-02-08T05:01:59.805Z,17.67
2019-02-08T05:07:05.249Z,11.03
2019-02-08T05:12:09.572Z,9.10
2019-02-08T05:17:14.607Z,10.57
2019-02-08T05:22:18.805Z,9.37
2019-02-08T05:27:23.620Z,9.67
2019-02-08T05:32:27.836Z,11.30
2019-02-08T05:37:32.647Z,15.00
2019-02-08T05:42:36.940Z,14.70
2019-02-08T05:47:42.224Z,14.93
2019-02-08T05:52:46.431Z,14.07
2019-02-08T05:57:50.707Z,8.43
2019-02-08T06:02:55.069Z,12.63
2019-02-08T06:07:59.819Z,9.37
2019-02-08T06:13:04.257Z,10.47
2019-02-08T06:18:09.278Z,11.50
2019-02-08T06:23:13.487Z,10.50
2019-02-08T06:28:19.086Z,12.23
2019-02-08T06:33:23.316Z,12.27
2019-02-08T06:38:27.958Z,17.80
2019-02-08T06:43:32.204Z,12.57
2019-02-08T06:48:37.058Z,13.13
2019-02-08T06:53:41.275Z,16.70
2019-02-08T06:58:54.745Z,11.60
2019-02-08T07:04:16.803Z,11.33
2019-02-08T07:09:44.090Z,17.77
2019-02-08T07:15:13.243Z,19.17
2019-02-08T07:20:25.290Z,17.13
2019-02-08T07:25:47.106Z,14.43
2019-02-08T07:31:09.115Z,16.90
2019-02-08T07:36:32.533Z,12.67
2019-02-08T07:41:46.763Z,10.23
2019-02-08T07:47:16.109Z,17.20
2019-02-08T07:52:39.426Z,15.73
2019-02-08T07:58:02.777Z,14.50
2019-02-08T08:03:32.098Z,11.63
2019-02-08T08:08:59.852Z,19.33
2019-02-08T08:14:39.501Z,12.77
2019-02-08T08:20:03.091Z,17.30
2019-02-08T08:25:24.022Z,16.10
2019-02-08T08:30:33.567Z,18.77
2019-02-08T08:35:55.634Z,16.70
2019-02-08T08:41:24.037Z,18.00
2019-02-08T08:46:35.836Z,15.03
2019-02-08T08:51:58.754Z,19.13
2019-02-08T08:57:06.712Z,14.47
2019-02-08T09:02:30.291Z,18.13
2019-02-08T09:07:59.640Z,18.23
2019-02-08T09:13:26.176Z,17.00
2019-02-08T09:18:52.575Z,16.03
2019-02-08T09:24:14.770Z,12.57
2019-02-08T09:29:29.055Z,15.07
2019-02-08T09:34:52.540Z,15.43
2019-02-08T09:40:16.806Z,14.23
2019-02-08T09:45:32.441Z,11.83
2019-02-08T09:50:57.147Z,13.60
2019-02-08T09:56:24.217Z,15.57
2019-02-08T10:01:59.615Z,14.40
2019-02-08T10:07:21.964Z,12.23
2019-02-08T10:13:03.822Z,17.10
2019-02-08T10:18:25.823Z,11.50
2019-02-08T10:23:40.497Z,8.73
2019-02-08T10:29:02.867Z,6.87
2019-02-08T10:34:29.235Z,14.87
2019-02-08T10:40:02.216Z,11.63
2019-02-08T10:45:25.707Z,8.38
2019-02-08T10:51:07.666Z,11.67
2019-02-08T10:56:30.130Z,6.00
2019-02-08T11:01:57.114Z,10.63
2019-02-08T11:07:19.436Z,8.58
2019-02-08T11:12:34.157Z,13.40
2019-02-08T11:17:59.005Z,11.60
2019-02-08T11:23:03.847Z,6.10
2019-02-08T11:28:08.094Z,9.03
2019-02-08T11:33:12.637Z,6.73
2019-02-08T11:38:17.096Z,9.00
2019-02-08T11:43:22.501Z,7.40
2019-02-08T11:48:27.010Z,9.07
2019-02-08T11:53:32.622Z,7.47
2019-02-08T11:58:37.169Z,10.37
2019-02-08T12:03:43.563Z,10.05
2019-02-08T12:08:48.008Z,8.47
2019-02-08T12:13:52.461Z,7.37
2019-02-08T12:18:56.916Z,7.57
2019-02-08T12:24:02.499Z,6.03
2019-02-08T12:29:07.175Z,9.87
2019-02-08T12:34:13.242Z,9.57
2019-02-08T12:39:17.723Z,3.60
2019-02-08T12:44:23.445Z,5.33
2019-02-08T12:49:27.915Z,4.87
2019-02-08T12:54:32.431Z,6.03
2019-02-08T12:59:36.898Z,7.33
2019-02-08T13:04:45.251Z,6.77
2019-02-08T13:09:50.248Z,8.80
2019-02-08T13:14:54.785Z,5.57
2019-02-08T13:19:59.344Z,5.43
2019-02-08T13:25:06.284Z,5.40
2019-02-08T13:30:21.148Z,11.97
2019-02-08T13:35:27.280Z,6.53
2019-02-08T13:40:31.786Z,7.57
2019-02-08T13:45:38.773Z,4.77
2019-02-08T13:50:43.291Z,5.63
2019-02-08T13:55:48.967Z,4.80
2019-02-08T14:00:53.244Z,7.95
2019-02-08T14:05:59.046Z,7.60
2019-02-08T14:11:03.463Z,10.88
2019-02-08T14:16:07.751Z,8.75
2019-02-08T14:21:12.047Z,7.92
2019-02-08T14:26:17.654Z,7.70
2019-02-08T14:31:21.902Z,9.10
2019-02-08T14:36:27.252Z,7.12
2019-02-08T14:41:31.460Z,9.35
2019-02-08T14:46:37.029Z,9.63
2019-02-08T14:51:41.271Z,8.93
2019-02-08T14:56:45.867Z,7.57
2019-02-08T15:01:50.570Z,6.57
2019-02-08T15:06:58.134Z,5.97
2019-02-08T15:12:02.692Z,8.07
2019-02-08T15:17:07.176Z,7.33
2019-02-08T15:22:12.942Z,6.67
2019-02-08T15:27:24.000Z,5.23
2019-02-08T15:32:23.087Z,6.72
2019-02-08T15:37:27.275Z,5.85
2019-02-08T15:42:31.462Z,6.45
2019-02-08T15:47:35.734Z,5.67
2019-02-08T15:52:39.999Z,3.33
2019-02-08T15:57:44.520Z,4.10
2019-02-08T16:02:49.009Z,3.00
2019-02-08T16:07:53.219Z,3.77
2019-02-08T16:12:57.400Z,3.30
2019-02-08T16:18:01.591Z,6.23
2019-02-08T16:23:05.855Z,3.07
2019-02-08T16:28:10.062Z,5.10
2019-02-08T16:33:14.290Z,2.02
2019-02-08T16:38:18.480Z,4.00
2019-02-08T16:43:22.631Z,2.10
2019-02-08T16:48:27.913Z,3.97
2019-02-08T16:53:32.160Z,3.53
2019-02-08T16:58:36.354Z,2.87
2019-02-08T17:03:40.521Z,4.00
2019-02-08T17:08:44.712Z,10.00
2019-02-08T17:13:48.938Z,2.97
2019-02-08T17:18:53.539Z,2.00
2019-02-08T17:23:57.733Z,1.73
2019-02-08T17:29:01.919Z,4.53
2019-02-08T17:34:06.163Z,3.00
2019-02-08T17:39:11.999Z,2.87
2019-02-08T17:44:16.187Z,5.30
2019-02-08T17:49:20.415Z,5.20
2019-02-08T17:54:25.788Z,9.30
2019-02-08T17:59:30.279Z,12.90
2019-02-08T18:04:34.477Z,12.40
2019-02-08T18:09:38.734Z,5.83
2019-02-08T18:14:42.938Z,11.83
2019-02-08T18:19:48.035Z,6.70
2019-02-08T18:24:52.267Z,6.67
2019-02-08T18:29:56.486Z,10.00
2019-02-08T18:35:02.062Z,3.83
2019-02-08T18:40:07.036Z,3.37
2019-02-08T18:45:12.733Z,3.97
2019-02-08T18:50:18.363Z,6.00
2019-02-08T18:55:24.230Z,3.20
2019-02-08T19:00:29.604Z,9.93
2019-02-08T19:05:35.450Z,13.80
2019-02-08T19:10:39.624Z,14.77
2019-02-08T19:15:44.962Z,17.70
2019-02-08T19:20:49.148Z,18.33
2019-02-08T19:25:54.847Z,23.60
2019-02-08T19:30:59.070Z,24.03
2019-02-08T19:36:03.723Z,22.77
2019-02-08T19:41:07.924Z,19.33
2019-02-08T19:46:13.119Z,18.83
2019-02-08T19:51:17.315Z,22.80
2019-02-08T19:56:22.010Z,23.33
2019-02-08T20:01:26.207Z,22.77
2019-02-08T20:06:31.500Z,23.20
2019-02-08T20:11:35.691Z,22.20
2019-02-08T20:16:39.979Z,26.77
2019-02-08T20:21:44.186Z,22.07
2019-02-08T20:26:48.422Z,23.17
2019-02-08T20:31:52.638Z,28.67
2019-02-08T20:36:56.886Z,28.23
2019-02-08T20:42:01.250Z,23.50
2019-02-08T20:47:06.449Z,24.67
2019-02-08T20:52:10.655Z,23.37
2019-02-08T20:57:15.659Z,21.23
2019-02-08T21:02:19.887Z,24.17
2019-02-08T21:07:25.640Z,19.63
2019-02-08T21:12:30.402Z,21.27
2019-02-08T21:17:35.810Z,25.80
2019-02-08T21:22:40.007Z,25.80
2019-02-08T21:27:44.327Z,28.33
2019-02-08T21:32:48.850Z,28.17
2019-02-08T21:37:53.655Z,24.00
2019-02-08T21:42:58.044Z,29.67
2019-02-08T21:48:02.408Z,26.97
2019-02-08T21:53:06.727Z,25.13
2019-02-08T21:58:10.993Z,27.53
2019-02-08T22:03:16.355Z,24.13
2019-02-08T22:08:20.631Z,21.70
2019-02-08T22:13:26.334Z,23.90
2019-02-08T22:18:30.517Z,21.40
2019-02-08T22:23:35.932Z,26.20
2019-02-08T22:28:40.130Z,25.23
2019-02-08T22:33:45.311Z,21.33
2019-02-08T22:38:49.517Z,22.33
2019-02-08T22:43:54.792Z,21.50
2019-02-08T22:48:59.155Z,18.97
2019-02-08T22:54:04.498Z,19.87
2019-02-08T22:59:08.685Z,18.97
2019-02-08T23:04:14.100Z,23.93
2019-02-08T23:09:19.450Z,25.30
2019-02-08T23:14:25.337Z,22.87
2019-02-08T23:19:29.532Z,21.77
2019-02-08T23:24:34.551Z,21.23
2019-02-08T23:29:38.734Z,19.00
2019-02-08T23:34:43.522Z,19.47
2019-02-08T23:39:47.708Z,20.63
2019-02-08T23:44:53.258Z,22.17
2019-02-08T23:49:57.512Z,18.97
2019-02-08T23:55:05.031Z,20.47
